sensor_id;sensor_type;location;lat;lon;timestamp;P1;durP1;ratioP1;P2;durP2;ratioP2
41923;SDS011;27613;48.116;11.656;2022-12-18T00:01:25;46.13;;;22.50;;
41923;SDS011;27613;48.116;11.656;2022-12-18T00:03:53;42.40;;;21.95;;
41923;SDS011;27613;48.116;11.656;2022-12-18T00:06:20;47.55;;;22.23;;
41923;SDS011;27613;48.116;11.656;2022-12-18T00:08:46;51.75;;;22.95;;
41923;SDS011;27613;48.116;11.656;2022-12-18T00:11:13;41.72;;;22.00;;
41923;SDS011;27613;48.116;11.656;2022-12-18T00:13:40;43.58;;;21.95;;
41923;SDS011;27613;48.116;11.656;2022-12-18T00:16:07;45.33;;;22.38;;
41923;SDS011;27613;48.116;11.656;2022-12-18T00:18:40;40.28;;;21.27;;
41923;SDS011;27613;48.116;11.656;2022-12-18T00:21:07;41.00;;;21.88;;
41923;SDS011;27613;48.116;11.656;2022-12-18T00:23:34;38.58;;;20.88;;
41923;SDS011;27613;48.116;11.656;2022-12-18T00:26:02;39.97;;;20.70;;
41923;SDS011;27613;48.116;11.656;2022-12-18T00:28:32;42.45;;;20.45;;
41923;SDS011;27613;48.116;11.656;2022-12-18T00:33:27;34.13;;;18.63;;
41923;SDS011;27613;48.116;11.656;2022-12-18T00:35:52;36.33;;;19.77;;
41923;SDS011;27613;48.116;11.656;2022-12-18T00:38:18;34.75;;;19.13;;
41923;SDS011;27613;48.116;11.656;2022-12-18T00:40:43;43.20;;;20.98;;
41923;SDS011;27613;48.116;11.656;2022-12-18T00:43:09;32.63;;;17.98;;
41923;SDS011;27613;48.116;11.656;2022-12-18T00:45:35;33.78;;;19.40;;
41923;SDS011;27613;48.116;11.656;2022-12-18T00:48:00;36.22;;;19.83;;
41923;SDS011;27613;48.116;11.656;2022-12-18T00:50:26;39.20;;;19.73;;
41923;SDS011;27613;48.116;11.656;2022-12-18T00:52:51;35.33;;;18.83;;
41923;SDS011;27613;48.116;11.656;2022-12-18T00:55:17;34.78;;;19.30;;
41923;SDS011;27613;48.116;11.656;2022-12-18T00:57:43;36.63;;;18.95;;
41923;SDS011;27613;48.116;11.656;2022-12-18T01:00:13;40.30;;;19.88;;
41923;SDS011;27613;48.116;11.656;2022-12-18T01:02:39;38.20;;;20.02;;
41923;SDS011;27613;48.116;11.656;2022-12-18T01:05:06;35.65;;;19.27;;
41923;SDS011;27613;48.116;11.656;2022-12-18T01:07:32;39.63;;;18.77;;
41923;SDS011;27613;48.116;11.656;2022-12-18T01:09:58;37.42;;;19.77;;
41923;SDS011;27613;48.116;11.656;2022-12-18T01:12:24;37.92;;;20.30;;
41923;SDS011;27613;48.116;11.656;2022-12-18T01:14:49;34.90;;;20.40;;
41923;SDS011;27613;48.116;11.656;2022-12-18T01:17:15;40.47;;;20.65;;
41923;SDS011;27613;48.116;11.656;2022-12-18T01:19:40;40.53;;;20.80;;
41923;SDS011;27613;48.116;11.656;2022-12-18T01:22:06;43.20;;;21.65;;
41923;SDS011;27613;48.116;11.656;2022-12-18T01:24:32;41.33;;;20.67;;
41923;SDS011;27613;48.116;11.656;2022-12-18T01:26:58;38.10;;;21.13;;
41923;SDS011;27613;48.116;11.656;2022-12-18T01:29:23;45.20;;;22.75;;
41923;SDS011;27613;48.116;11.656;2022-12-18T01:31:49;34.88;;;20.17;;
41923;SDS011;27613;48.116;11.656;2022-12-18T01:34:14;41.05;;;20.60;;
41923;SDS011;27613;48.116;11.656;2022-12-18T01:36:40;42.50;;;21.35;;
41923;SDS011;27613;48.116;11.656;2022-12-18T01:39:07;35.13;;;19.25;;
41923;SDS011;27613;48.116;11.656;2022-12-18T01:41:36;44.85;;;21.90;;
41923;SDS011;27613;48.116;11.656;2022-12-18T01:47:30;46.83;;;21.15;;
41923;SDS011;27613;48.116;11.656;2022-12-18T01:52:39;48.17;;;22.55;;
41923;SDS011;27613;48.116;11.656;2022-12-18T01:55:07;41.42;;;21.42;;
41923;SDS011;27613;48.116;11.656;2022-12-18T01:57:33;43.03;;;22.23;;
41923;SDS011;27613;48.116;11.656;2022-12-18T02:00:01;39.08;;;21.80;;
41923;SDS011;27613;48.116;11.656;2022-12-18T02:02:46;42.55;;;21.55;;
41923;SDS011;27613;48.116;11.656;2022-12-18T02:05:13;39.58;;;21.27;;
41923;SDS011;27613;48.116;11.656;2022-12-18T02:10:29;43.10;;;22.40;;
41923;SDS011;27613;48.116;11.656;2022-12-18T02:18:07;45.58;;;21.70;;
41923;SDS011;27613;48.116;11.656;2022-12-18T02:20:36;45.15;;;23.65;;
41923;SDS011;27613;48.116;11.656;2022-12-18T02:23:27;44.78;;;23.80;;
41923;SDS011;27613;48.116;11.656;2022-12-18T02:26:16;49.53;;;24.75;;
41923;SDS011;27613;48.116;11.656;2022-12-18T02:29:02;43.45;;;24.15;;
41923;SDS011;27613;48.116;11.656;2022-12-18T02:31:43;44.17;;;22.85;;
41923;SDS011;27613;48.116;11.656;2022-12-18T02:34:13;42.03;;;22.92;;
41923;SDS011;27613;48.116;11.656;2022-12-18T02:36:46;45.63;;;23.27;;
41923;SDS011;27613;48.116;11.656;2022-12-18T02:39:14;43.45;;;24.25;;
41923;SDS011;27613;48.116;11.656;2022-12-18T02:41:41;51.03;;;24.45;;
41923;SDS011;27613;48.116;11.656;2022-12-18T02:44:08;50.13;;;24.15;;
41923;SDS011;27613;48.116;11.656;2022-12-18T02:46:45;45.47;;;23.80;;
41923;SDS011;27613;48.116;11.656;2022-12-18T02:55:16;42.40;;;22.83;;
41923;SDS011;27613;48.116;11.656;2022-12-18T02:57:56;46.38;;;23.30;;
41923;SDS011;27613;48.116;11.656;2022-12-18T03:03:23;40.63;;;20.38;;
41923;SDS011;27613;48.116;11.656;2022-12-18T03:05:59;40.88;;;21.98;;
41923;SDS011;27613;48.116;11.656;2022-12-18T03:08:30;51.63;;;24.17;;
41923;SDS011;27613;48.116;11.656;2022-12-18T03:11:11;46.25;;;21.58;;
41923;SDS011;27613;48.116;11.656;2022-12-18T03:16:06;39.95;;;20.33;;
41923;SDS011;27613;48.116;11.656;2022-12-18T03:18:36;43.08;;;21.55;;
41923;SDS011;27613;48.116;11.656;2022-12-18T03:21:07;43.95;;;22.98;;
41923;SDS011;27613;48.116;11.656;2022-12-18T03:23:36;37.05;;;22.45;;
41923;SDS011;27613;48.116;11.656;2022-12-18T03:26:16;44.28;;;22.25;;
41923;SDS011;27613;48.116;11.656;2022-12-18T03:28:46;48.08;;;24.02;;
41923;SDS011;27613;48.116;11.656;2022-12-18T03:31:36;55.35;;;22.73;;
41923;SDS011;27613;48.116;11.656;2022-12-18T03:34:09;44.63;;;23.42;;
41923;SDS011;27613;48.116;11.656;2022-12-18T03:36:39;38.67;;;22.83;;
41923;SDS011;27613;48.116;11.656;2022-12-18T03:39:05;38.28;;;21.95;;
41923;SDS011;27613;48.116;11.656;2022-12-18T03:41:32;44.38;;;23.75;;
41923;SDS011;27613;48.116;11.656;2022-12-18T03:44:12;45.03;;;23.40;;
41923;SDS011;27613;48.116;11.656;2022-12-18T03:47:17;54.13;;;23.65;;
41923;SDS011;27613;48.116;11.656;2022-12-18T03:52:35;42.90;;;22.67;;
41923;SDS011;27613;48.116;11.656;2022-12-18T03:55:03;46.95;;;22.27;;
41923;SDS011;27613;48.116;11.656;2022-12-18T03:57:32;49.40;;;24.55;;
41923;SDS011;27613;48.116;11.656;2022-12-18T04:00:00;33.95;;;20.85;;
41923;SDS011;27613;48.116;11.656;2022-12-18T04:02:35;43.90;;;21.85;;
41923;SDS011;27613;48.116;11.656;2022-12-18T04:05:06;38.85;;;20.10;;
41923;SDS011;27613;48.116;11.656;2022-12-18T04:07:33;42.85;;;22.40;;
41923;SDS011;27613;48.116;11.656;2022-12-18T04:09:59;38.17;;;21.65;;
41923;SDS011;27613;48.116;11.656;2022-12-18T04:12:28;43.88;;;23.13;;
41923;SDS011;27613;48.116;11.656;2022-12-18T04:14:55;41.25;;;21.48;;
41923;SDS011;27613;48.116;11.656;2022-12-18T04:17:20;43.42;;;20.80;;
41923;SDS011;27613;48.116;11.656;2022-12-18T04:19:46;46.95;;;20.13;;
41923;SDS011;27613;48.116;11.656;2022-12-18T04:22:12;41.25;;;21.60;;
41923;SDS011;27613;48.116;11.656;2022-12-18T04:24:38;42.50;;;23.55;;
41923;SDS011;27613;48.116;11.656;2022-12-18T04:27:03;45.40;;;23.50;;
41923;SDS011;27613;48.116;11.656;2022-12-18T04:29:29;39.80;;;20.77;;
41923;SDS011;27613;48.116;11.656;2022-12-18T04:31:55;40.30;;;21.15;;
41923;SDS011;27613;48.116;11.656;2022-12-18T04:34:20;47.10;;;22.58;;
41923;SDS011;27613;48.116;11.656;2022-12-18T04:36:46;38.22;;;20.25;;
41923;SDS011;27613;48.116;11.656;2022-12-18T04:39:12;41.25;;;20.02;;
41923;SDS011;27613;48.116;11.656;2022-12-18T04:41:39;35.33;;;18.30;;
41923;SDS011;27613;48.116;11.656;2022-12-18T04:44:04;33.83;;;18.90;;
41923;SDS011;27613;48.116;11.656;2022-12-18T04:46:30;40.38;;;20.08;;
41923;SDS011;27613;48.116;11.656;2022-12-18T04:48:56;40.97;;;19.85;;
41923;SDS011;27613;48.116;11.656;2022-12-18T04:51:21;35.67;;;20.42;;
41923;SDS011;27613;48.116;11.656;2022-12-18T04:53:47;37.17;;;20.33;;
41923;SDS011;27613;48.116;11.656;2022-12-18T04:56:14;49.92;;;21.00;;
41923;SDS011;27613;48.116;11.656;2022-12-18T04:58:41;43.47;;;20.83;;
41923;SDS011;27613;48.116;11.656;2022-12-18T05:01:08;38.38;;;19.70;;
41923;SDS011;27613;48.116;11.656;2022-12-18T05:03:35;34.03;;;20.13;;
41923;SDS011;27613;48.116;11.656;2022-12-18T05:06:01;32.53;;;18.60;;
41923;SDS011;27613;48.116;11.656;2022-12-18T05:08:27;34.60;;;19.85;;
41923;SDS011;27613;48.116;11.656;2022-12-18T05:11:00;40.20;;;19.05;;
41923;SDS011;27613;48.116;11.656;2022-12-18T05:13:34;33.72;;;17.52;;
41923;SDS011;27613;48.116;11.656;2022-12-18T05:16:00;41.15;;;20.70;;
41923;SDS011;27613;48.116;11.656;2022-12-18T05:18:26;31.35;;;18.50;;
41923;SDS011;27613;48.116;11.656;2022-12-18T05:20:52;36.53;;;19.80;;
41923;SDS011;27613;48.116;11.656;2022-12-18T05:23:20;36.15;;;19.38;;
41923;SDS011;27613;48.116;11.656;2022-12-18T05:25:54;37.58;;;20.35;;
41923;SDS011;27613;48.116;11.656;2022-12-18T05:28:22;44.53;;;21.42;;
41923;SDS011;27613;48.116;11.656;2022-12-18T05:30:52;45.38;;;21.65;;
41923;SDS011;27613;48.116;11.656;2022-12-18T05:33:19;35.67;;;18.77;;
41923;SDS011;27613;48.116;11.656;2022-12-18T05:35:52;39.08;;;20.52;;
41923;SDS011;27613;48.116;11.656;2022-12-18T05:38:23;41.03;;;20.45;;
41923;SDS011;27613;48.116;11.656;2022-12-18T05:40:50;31.02;;;18.33;;
41923;SDS011;27613;48.116;11.656;2022-12-18T05:43:16;36.22;;;19.67;;
41923;SDS011;27613;48.116;11.656;2022-12-18T05:45:43;32.00;;;18.55;;
41923;SDS011;27613;48.116;11.656;2022-12-18T05:48:09;35.90;;;17.58;;
41923;SDS011;27613;48.116;11.656;2022-12-18T05:50:38;32.65;;;18.42;;
41923;SDS011;27613;48.116;11.656;2022-12-18T05:53:05;34.38;;;18.70;;
41923;SDS011;27613;48.116;11.656;2022-12-18T05:55:37;32.95;;;17.88;;
41923;SDS011;27613;48.116;11.656;2022-12-18T05:58:05;34.03;;;18.88;;
41923;SDS011;27613;48.116;11.656;2022-12-18T06:00:33;30.23;;;17.10;;
41923;SDS011;27613;48.116;11.656;2022-12-18T06:03:00;29.52;;;17.00;;
41923;SDS011;27613;48.116;11.656;2022-12-18T06:05:26;49.78;;;17.85;;
41923;SDS011;27613;48.116;11.656;2022-12-18T06:07:53;31.73;;;18.17;;
41923;SDS011;27613;48.116;11.656;2022-12-18T06:10:18;32.63;;;17.67;;
41923;SDS011;27613;48.116;11.656;2022-12-18T06:12:44;35.90;;;18.50;;
41923;SDS011;27613;48.116;11.656;2022-12-18T06:15:10;33.88;;;18.08;;
41923;SDS011;27613;48.116;11.656;2022-12-18T06:17:36;29.00;;;16.02;;
41923;SDS011;27613;48.116;11.656;2022-12-18T06:20:02;28.00;;;16.23;;
41923;SDS011;27613;48.116;11.656;2022-12-18T06:22:30;38.60;;;17.50;;
41923;SDS011;27613;48.116;11.656;2022-12-18T06:24:56;35.75;;;15.13;;
41923;SDS011;27613;48.116;11.656;2022-12-18T06:27:27;27.25;;;15.85;;
41923;SDS011;27613;48.116;11.656;2022-12-18T06:33:54;28.73;;;15.27;;
41923;SDS011;27613;48.116;11.656;2022-12-18T06:36:29;28.38;;;14.55;;
41923;SDS011;27613;48.116;11.656;2022-12-18T06:38:55;27.35;;;15.27;;
41923;SDS011;27613;48.116;11.656;2022-12-18T06:41:21;30.73;;;16.58;;
41923;SDS011;27613;48.116;11.656;2022-12-18T06:43:47;32.75;;;18.38;;
41923;SDS011;27613;48.116;11.656;2022-12-18T06:46:12;32.03;;;18.35;;
41923;SDS011;27613;48.116;11.656;2022-12-18T06:48:38;35.75;;;18.95;;
41923;SDS011;27613;48.116;11.656;2022-12-18T06:51:05;37.97;;;17.10;;
41923;SDS011;27613;48.116;11.656;2022-12-18T06:53:31;35.78;;;18.73;;
41923;SDS011;27613;48.116;11.656;2022-12-18T06:56:04;31.70;;;17.92;;
41923;SDS011;27613;48.116;11.656;2022-12-18T06:58:31;34.90;;;17.58;;
41923;SDS011;27613;48.116;11.656;2022-12-18T07:01:00;39.92;;;18.23;;
41923;SDS011;27613;48.116;11.656;2022-12-18T07:03:27;28.20;;;14.88;;
41923;SDS011;27613;48.116;11.656;2022-12-18T07:05:53;31.98;;;16.92;;
41923;SDS011;27613;48.116;11.656;2022-12-18T07:08:18;29.95;;;16.08;;
41923;SDS011;27613;48.116;11.656;2022-12-18T07:10:44;27.02;;;14.68;;
41923;SDS011;27613;48.116;11.656;2022-12-18T07:13:10;32.63;;;16.20;;
41923;SDS011;27613;48.116;11.656;2022-12-18T07:15:36;33.42;;;16.50;;
41923;SDS011;27613;48.116;11.656;2022-12-18T07:18:01;33.92;;;16.63;;
41923;SDS011;27613;48.116;11.656;2022-12-18T07:20:27;34.63;;;16.55;;
41923;SDS011;27613;48.116;11.656;2022-12-18T07:22:52;30.45;;;16.95;;
41923;SDS011;27613;48.116;11.656;2022-12-18T07:25:18;36.53;;;16.52;;
41923;SDS011;27613;48.116;11.656;2022-12-18T07:27:44;31.83;;;16.92;;
41923;SDS011;27613;48.116;11.656;2022-12-18T07:30:09;27.40;;;15.00;;
41923;SDS011;27613;48.116;11.656;2022-12-18T07:32:35;32.65;;;16.52;;
41923;SDS011;27613;48.116;11.656;2022-12-18T07:35:01;34.58;;;15.18;;
41923;SDS011;27613;48.116;11.656;2022-12-18T07:37:26;32.38;;;16.50;;
41923;SDS011;27613;48.116;11.656;2022-12-18T07:39:52;29.60;;;16.20;;
41923;SDS011;27613;48.116;11.656;2022-12-18T07:42:17;31.00;;;16.67;;
41923;SDS011;27613;48.116;11.656;2022-12-18T07:44:55;33.25;;;16.33;;
41923;SDS011;27613;48.116;11.656;2022-12-18T07:47:21;35.65;;;17.45;;
41923;SDS011;27613;48.116;11.656;2022-12-18T07:49:47;28.63;;;15.45;;
41923;SDS011;27613;48.116;11.656;2022-12-18T07:52:12;33.72;;;16.75;;
41923;SDS011;27613;48.116;11.656;2022-12-18T07:54:38;30.73;;;16.73;;
41923;SDS011;27613;48.116;11.656;2022-12-18T07:57:05;30.48;;;17.42;;
41923;SDS011;27613;48.116;11.656;2022-12-18T07:59:30;29.67;;;17.02;;
41923;SDS011;27613;48.116;11.656;2022-12-18T08:01:56;29.08;;;15.98;;
41923;SDS011;27613;48.116;11.656;2022-12-18T08:04:22;27.05;;;14.68;;
41923;SDS011;27613;48.116;11.656;2022-12-18T08:06:47;29.13;;;15.85;;
41923;SDS011;27613;48.116;11.656;2022-12-18T08:09:13;28.33;;;15.77;;
41923;SDS011;27613;48.116;11.656;2022-12-18T08:11:38;33.75;;;16.65;;
41923;SDS011;27613;48.116;11.656;2022-12-18T08:14:04;29.38;;;16.40;;
41923;SDS011;27613;48.116;11.656;2022-12-18T08:16:29;28.13;;;16.60;;
41923;SDS011;27613;48.116;11.656;2022-12-18T08:18:55;27.63;;;13.85;;
41923;SDS011;27613;48.116;11.656;2022-12-18T08:21:22;32.30;;;15.25;;
41923;SDS011;27613;48.116;11.656;2022-12-18T08:23:51;26.88;;;15.32;;
41923;SDS011;27613;48.116;11.656;2022-12-18T08:26:18;28.85;;;16.20;;
41923;SDS011;27613;48.116;11.656;2022-12-18T08:28:44;33.95;;;15.73;;
41923;SDS011;27613;48.116;11.656;2022-12-18T08:31:10;26.25;;;15.57;;
41923;SDS011;27613;48.116;11.656;2022-12-18T08:33:36;31.08;;;16.42;;
41923;SDS011;27613;48.116;11.656;2022-12-18T08:36:03;24.67;;;13.98;;
41923;SDS011;27613;48.116;11.656;2022-12-18T08:38:29;23.85;;;14.90;;
41923;SDS011;27613;48.116;11.656;2022-12-18T08:41:01;26.13;;;14.50;;
41923;SDS011;27613;48.116;11.656;2022-12-18T08:43:30;29.40;;;14.55;;
41923;SDS011;27613;48.116;11.656;2022-12-18T08:46:15;26.92;;;14.18;;
41923;SDS011;27613;48.116;11.656;2022-12-18T08:48:41;26.38;;;15.20;;
41923;SDS011;27613;48.116;11.656;2022-12-18T08:51:07;22.23;;;12.88;;
41923;SDS011;27613;48.116;11.656;2022-12-18T08:53:34;24.80;;;14.27;;
41923;SDS011;27613;48.116;11.656;2022-12-18T08:56:01;24.88;;;13.90;;
41923;SDS011;27613;48.116;11.656;2022-12-18T08:58:27;28.10;;;14.55;;
41923;SDS011;27613;48.116;11.656;2022-12-18T09:00:53;24.70;;;14.05;;
41923;SDS011;27613;48.116;11.656;2022-12-18T09:03:19;22.77;;;13.70;;
41923;SDS011;27613;48.116;11.656;2022-12-18T09:05:47;24.60;;;13.85;;
41923;SDS011;27613;48.116;11.656;2022-12-18T09:08:13;31.40;;;15.90;;
41923;SDS011;27613;48.116;11.656;2022-12-18T09:10:42;24.15;;;13.15;;
41923;SDS011;27613;48.116;11.656;2022-12-18T09:13:09;22.83;;;13.48;;
41923;SDS011;27613;48.116;11.656;2022-12-18T09:15:40;26.45;;;13.98;;
41923;SDS011;27613;48.116;11.656;2022-12-18T09:18:06;30.58;;;14.93;;
41923;SDS011;27613;48.116;11.656;2022-12-18T09:20:32;25.80;;;15.32;;
41923;SDS011;27613;48.116;11.656;2022-12-18T09:23:01;20.48;;;13.43;;
41923;SDS011;27613;48.116;11.656;2022-12-18T09:25:28;27.98;;;15.10;;
41923;SDS011;27613;48.116;11.656;2022-12-18T09:27:58;33.55;;;19.20;;
41923;SDS011;27613;48.116;11.656;2022-12-18T09:30:26;24.23;;;14.32;;
41923;SDS011;27613;48.116;11.656;2022-12-18T09:32:58;27.38;;;15.75;;
41923;SDS011;27613;48.116;11.656;2022-12-18T09:35:28;29.92;;;14.35;;
41923;SDS011;27613;48.116;11.656;2022-12-18T09:37:54;25.73;;;15.40;;
41923;SDS011;27613;48.116;11.656;2022-12-18T09:40:32;27.80;;;14.18;;
41923;SDS011;27613;48.116;11.656;2022-12-18T09:43:04;38.00;;;15.50;;
41923;SDS011;27613;48.116;11.656;2022-12-18T09:45:34;22.30;;;13.38;;
41923;SDS011;27613;48.116;11.656;2022-12-18T09:48:09;22.95;;;14.18;;
41923;SDS011;27613;48.116;11.656;2022-12-18T09:50:40;23.08;;;13.65;;
41923;SDS011;27613;48.116;11.656;2022-12-18T09:53:15;23.35;;;13.77;;
41923;SDS011;27613;48.116;11.656;2022-12-18T09:55:47;26.10;;;12.45;;
41923;SDS011;27613;48.116;11.656;2022-12-18T10:00:58;24.20;;;14.07;;
41923;SDS011;27613;48.116;11.656;2022-12-18T10:03:32;29.02;;;15.07;;
41923;SDS011;27613;48.116;11.656;2022-12-18T10:10:53;24.60;;;14.15;;
41923;SDS011;27613;48.116;11.656;2022-12-18T10:13:34;24.27;;;14.20;;
41923;SDS011;27613;48.116;11.656;2022-12-18T10:16:19;25.67;;;14.32;;
41923;SDS011;27613;48.116;11.656;2022-12-18T10:27:40;40.25;;;19.27;;
41923;SDS011;27613;48.116;11.656;2022-12-18T10:30:12;23.92;;;13.70;;
41923;SDS011;27613;48.116;11.656;2022-12-18T10:32:40;22.98;;;13.60;;
41923;SDS011;27613;48.116;11.656;2022-12-18T10:35:23;26.23;;;14.43;;
41923;SDS011;27613;48.116;11.656;2022-12-18T10:38:25;20.17;;;12.68;;
41923;SDS011;27613;48.116;11.656;2022-12-18T10:40:50;21.55;;;12.63;;
41923;SDS011;27613;48.116;11.656;2022-12-18T10:43:29;22.67;;;13.38;;
41923;SDS011;27613;48.116;11.656;2022-12-18T10:48:36;22.77;;;12.88;;
41923;SDS011;27613;48.116;11.656;2022-12-18T10:56:23;31.52;;;15.00;;
41923;SDS011;27613;48.116;11.656;2022-12-18T10:58:58;27.45;;;14.52;;
41923;SDS011;27613;48.116;11.656;2022-12-18T11:01:26;28.85;;;13.15;;
41923;SDS011;27613;48.116;11.656;2022-12-18T11:06:20;23.20;;;13.27;;
41923;SDS011;27613;48.116;11.656;2022-12-18T11:09:05;25.42;;;15.85;;
41923;SDS011;27613;48.116;11.656;2022-12-18T11:11:48;22.15;;;13.45;;
41923;SDS011;27613;48.116;11.656;2022-12-18T11:14:29;21.57;;;13.37;;
41923;SDS011;27613;48.116;11.656;2022-12-18T11:16:57;24.08;;;12.98;;
41923;SDS011;27613;48.116;11.656;2022-12-18T11:19:40;22.83;;;12.63;;
41923;SDS011;27613;48.116;11.656;2022-12-18T11:22:25;20.98;;;12.75;;
41923;SDS011;27613;48.116;11.656;2022-12-18T11:24:57;20.38;;;13.25;;
41923;SDS011;27613;48.116;11.656;2022-12-18T11:27:30;23.15;;;13.25;;
41923;SDS011;27613;48.116;11.656;2022-12-18T11:32:46;21.80;;;13.32;;
41923;SDS011;27613;48.116;11.656;2022-12-18T11:38:05;22.08;;;14.13;;
41923;SDS011;27613;48.116;11.656;2022-12-18T11:40:38;28.48;;;15.73;;
41923;SDS011;27613;48.116;11.656;2022-12-18T11:43:09;42.97;;;21.35;;
41923;SDS011;27613;48.116;11.656;2022-12-18T11:45:59;30.77;;;17.58;;
41923;SDS011;27613;48.116;11.656;2022-12-18T11:48:33;25.13;;;16.67;;
41923;SDS011;27613;48.116;11.656;2022-12-18T11:51:04;33.15;;;16.83;;
41923;SDS011;27613;48.116;11.656;2022-12-18T11:53:40;25.25;;;15.95;;
41923;SDS011;27613;48.116;11.656;2022-12-18T12:04:58;55.00;;;16.67;;
41923;SDS011;27613;48.116;11.656;2022-12-18T12:12:27;30.95;;;15.13;;
41923;SDS011;27613;48.116;11.656;2022-12-18T12:15:25;31.98;;;17.33;;
41923;SDS011;27613;48.116;11.656;2022-12-18T12:20:55;20.42;;;11.68;;
41923;SDS011;27613;48.116;11.656;2022-12-18T12:39:33;27.00;;;15.05;;
41923;SDS011;27613;48.116;11.656;2022-12-18T12:42:03;35.88;;;14.05;;
41923;SDS011;27613;48.116;11.656;2022-12-18T12:44:54;21.25;;;12.68;;
41923;SDS011;27613;48.116;11.656;2022-12-18T12:47:24;24.05;;;13.68;;
41923;SDS011;27613;48.116;11.656;2022-12-18T12:50:02;19.48;;;12.48;;
41923;SDS011;27613;48.116;11.656;2022-12-18T12:52:31;22.00;;;12.55;;
41923;SDS011;27613;48.116;11.656;2022-12-18T12:55:05;23.98;;;13.15;;
41923;SDS011;27613;48.116;11.656;2022-12-18T12:57:38;21.20;;;12.75;;
41923;SDS011;27613;48.116;11.656;2022-12-18T13:07:49;28.98;;;13.48;;
41923;SDS011;27613;48.116;11.656;2022-12-18T13:13:17;24.48;;;14.43;;
41923;SDS011;27613;48.116;11.656;2022-12-18T13:15:41;29.02;;;15.10;;
41923;SDS011;27613;48.116;11.656;2022-12-18T13:20:45;24.73;;;14.38;;
41923;SDS011;27613;48.116;11.656;2022-12-18T13:34:11;36.90;;;18.10;;
41923;SDS011;27613;48.116;11.656;2022-12-18T13:36:46;40.40;;;19.08;;
41923;SDS011;27613;48.116;11.656;2022-12-18T13:41:46;20.80;;;13.27;;
41923;SDS011;27613;48.116;11.656;2022-12-18T13:44:33;30.10;;;14.95;;
41923;SDS011;27613;48.116;11.656;2022-12-18T13:47:01;38.17;;;16.90;;
41923;SDS011;27613;48.116;11.656;2022-12-18T13:49:38;32.50;;;15.48;;
41923;SDS011;27613;48.116;11.656;2022-12-18T13:52:27;26.90;;;14.15;;
41923;SDS011;27613;48.116;11.656;2022-12-18T13:54:54;28.60;;;15.95;;
41923;SDS011;27613;48.116;11.656;2022-12-18T13:57:37;25.98;;;14.43;;
41923;SDS011;27613;48.116;11.656;2022-12-18T14:02:47;44.38;;;18.60;;
41923;SDS011;27613;48.116;11.656;2022-12-18T14:07:51;24.50;;;13.02;;
41923;SDS011;27613;48.116;11.656;2022-12-18T14:10:18;23.75;;;14.35;;
41923;SDS011;27613;48.116;11.656;2022-12-18T14:12:46;22.58;;;12.88;;
41923;SDS011;27613;48.116;11.656;2022-12-18T14:17:58;30.88;;;13.93;;
41923;SDS011;27613;48.116;11.656;2022-12-18T14:20:41;35.60;;;16.52;;
41923;SDS011;27613;48.116;11.656;2022-12-18T14:25:53;29.05;;;16.45;;
41923;SDS011;27613;48.116;11.656;2022-12-18T14:28:19;21.35;;;12.40;;
41923;SDS011;27613;48.116;11.656;2022-12-18T14:30:46;23.85;;;13.38;;
41923;SDS011;27613;48.116;11.656;2022-12-18T14:33:13;24.58;;;13.45;;
41923;SDS011;27613;48.116;11.656;2022-12-18T14:36:02;24.27;;;13.02;;
41923;SDS011;27613;48.116;11.656;2022-12-18T14:41:02;21.10;;;11.75;;
41923;SDS011;27613;48.116;11.656;2022-12-18T14:43:47;27.70;;;13.85;;
41923;SDS011;27613;48.116;11.656;2022-12-18T14:48:53;27.27;;;14.68;;
41923;SDS011;27613;48.116;11.656;2022-12-18T14:51:20;26.45;;;13.30;;
41923;SDS011;27613;48.116;11.656;2022-12-18T14:53:51;27.95;;;15.82;;
41923;SDS011;27613;48.116;11.656;2022-12-18T14:56:21;25.42;;;12.82;;
41923;SDS011;27613;48.116;11.656;2022-12-18T14:58:54;35.05;;;16.00;;
41923;SDS011;27613;48.116;11.656;2022-12-18T15:01:26;35.03;;;15.35;;
41923;SDS011;27613;48.116;11.656;2022-12-18T15:03:54;24.83;;;13.95;;
41923;SDS011;27613;48.116;11.656;2022-12-18T15:06:31;30.92;;;16.17;;
41923;SDS011;27613;48.116;11.656;2022-12-18T15:08:58;31.35;;;15.90;;
41923;SDS011;27613;48.116;11.656;2022-12-18T15:11:30;34.65;;;16.48;;
41923;SDS011;27613;48.116;11.656;2022-12-18T15:14:03;25.47;;;11.97;;
41923;SDS011;27613;48.116;11.656;2022-12-18T15:16:55;27.17;;;15.10;;
41923;SDS011;27613;48.116;11.656;2022-12-18T15:19:22;35.53;;;20.60;;
41923;SDS011;27613;48.116;11.656;2022-12-18T15:21:57;28.63;;;17.30;;
41923;SDS011;27613;48.116;11.656;2022-12-18T15:24:24;27.50;;;16.48;;
41923;SDS011;27613;48.116;11.656;2022-12-18T15:26:54;27.83;;;14.90;;
41923;SDS011;27613;48.116;11.656;2022-12-18T15:29:21;26.40;;;14.30;;
41923;SDS011;27613;48.116;11.656;2022-12-18T15:32:03;29.15;;;15.50;;
41923;SDS011;27613;48.116;11.656;2022-12-18T15:34:30;31.17;;;15.25;;
41923;SDS011;27613;48.116;11.656;2022-12-18T15:36:59;25.02;;;13.70;;
41923;SDS011;27613;48.116;11.656;2022-12-18T15:39:24;27.38;;;14.27;;
41923;SDS011;27613;48.116;11.656;2022-12-18T15:41:50;31.73;;;14.13;;
41923;SDS011;27613;48.116;11.656;2022-12-18T15:44:51;28.30;;;14.48;;
41923;SDS011;27613;48.116;11.656;2022-12-18T15:47:17;29.23;;;14.43;;
41923;SDS011;27613;48.116;11.656;2022-12-18T15:49:42;28.73;;;14.75;;
41923;SDS011;27613;48.116;11.656;2022-12-18T15:52:08;30.33;;;15.23;;
41923;SDS011;27613;48.116;11.656;2022-12-18T15:54:38;36.90;;;14.95;;
41923;SDS011;27613;48.116;11.656;2022-12-18T15:57:22;27.25;;;14.77;;
41923;SDS011;27613;48.116;11.656;2022-12-18T15:59:48;27.77;;;13.98;;
41923;SDS011;27613;48.116;11.656;2022-12-18T16:02:15;30.98;;;16.05;;
41923;SDS011;27613;48.116;11.656;2022-12-18T16:04:43;26.42;;;14.93;;
41923;SDS011;27613;48.116;11.656;2022-12-18T16:07:08;31.98;;;15.70;;
41923;SDS011;27613;48.116;11.656;2022-12-18T16:09:34;27.52;;;15.45;;
41923;SDS011;27613;48.116;11.656;2022-12-18T16:12:00;32.10;;;15.77;;
41923;SDS011;27613;48.116;11.656;2022-12-18T16:14:27;31.73;;;16.67;;
41923;SDS011;27613;48.116;11.656;2022-12-18T16:16:55;33.15;;;16.73;;
41923;SDS011;27613;48.116;11.656;2022-12-18T16:19:23;32.60;;;15.95;;
41923;SDS011;27613;48.116;11.656;2022-12-18T16:21:49;29.92;;;16.42;;
41923;SDS011;27613;48.116;11.656;2022-12-18T16:24:17;35.78;;;16.48;;
41923;SDS011;27613;48.116;11.656;2022-12-18T16:26:44;38.08;;;18.45;;
41923;SDS011;27613;48.116;11.656;2022-12-18T16:29:10;43.42;;;20.75;;
41923;SDS011;27613;48.116;11.656;2022-12-18T16:31:36;33.83;;;18.42;;
41923;SDS011;27613;48.116;11.656;2022-12-18T16:34:13;30.92;;;16.38;;
41923;SDS011;27613;48.116;11.656;2022-12-18T16:36:48;27.88;;;15.82;;
41923;SDS011;27613;48.116;11.656;2022-12-18T16:39:15;31.88;;;17.58;;
41923;SDS011;27613;48.116;11.656;2022-12-18T16:41:41;28.70;;;15.90;;
41923;SDS011;27613;48.116;11.656;2022-12-18T16:44:06;32.63;;;16.25;;
41923;SDS011;27613;48.116;11.656;2022-12-18T16:46:32;33.33;;;16.63;;